Time;durP1;ratioP1;P1;durP2;ratioP2;P2;SDS_P1;SDS_P2;PMS_P1;PMS_P2;Temp;Humidity;BMP_temperature;BMP_pressure;BME280_temperature;BME280_humidity;BME280_pressure;Samples;Min_cycle;Max_cycle;Signal;HPM_P1;HPM_P2
2022/04/28 00:02:04;;;;;;;17.70;10.07;;;;;;;-145.69;100.00;72781.59;5072700;28;20234;-75
2022/04/28 00:04:30;;;;;;;18.33;10.40;;;;;;;-145.69;100.00;72799.53;5072634;28;20206;-75
2022/04/28 00:06:57;;;;;;;22.07;12.07;;;;;;;-145.69;100.00;72799.53;5071751;28;20668;-75
2022/04/28 00:09:23;;;;;;;23.27;12.10;;;;;;;-145.69;100.00;72795.53;5072737;28;20202;-75
2022/04/28 00:11:52;;;;;;;27.57;14.83;;;;;;;-145.69;100.00;72769.66;5072690;28;20209;-75
2022/04/28 00:14:19;;;;;;;26.60;14.60;;;;;;;-145.69;100.00;72759.72;5072867;28;20290;-75
2022/04/28 00:16:46;;;;;;;27.30;14.27;;;;;;;-145.69;100.00;72745.78;5072601;28;20261;-75
2022/04/28 00:19:13;;;;;;;26.63;14.17;;;;;;;-145.69;100.00;72757.72;5072852;28;20279;-75
2022/04/28 00:21:39;;;;;;;23.17;13.37;;;;;;;-145.69;100.00;72739.81;5072621;28;20199;-75
2022/04/28 00:24:06;;;;;;;29.98;16.70;;;;;;;-145.69;100.00;72753.75;5072045;28;20496;-75
2022/04/28 00:26:33;;;;;;;27.30;14.63;;;;;;;-145.69;100.00;72751.75;5072482;28;20195;-75
2022/04/28 00:29:01;;;;;;;29.77;15.17;;;;;;;-145.69;100.00;72759.72;5072767;28;20207;-75
2022/04/28 00:31:27;;;;;;;30.50;15.77;;;;;;;-145.69;100.00;72763.69;5072585;28;20206;-75
2022/04/28 00:33:55;;;;;;;27.10;14.57;;;;;;;-145.69;100.00;72759.72;5070755;28;20202;-75
2022/04/28 00:36:22;;;;;;;24.93;14.27;;;;;;;-145.69;100.00;72767.69;5072396;28;20203;-75
2022/04/28 00:38:48;;;;;;;27.63;14.17;;;;;;;-145.69;100.00;72793.56;5072374;28;20205;-75
2022/04/28 00:41:15;;;;;;;28.20;14.33;;;;;;;-145.69;100.00;72783.59;5072640;28;20207;-75
2022/04/28 00:43:48;;;;;;;30.33;14.73;;;;;;;-145.69;100.00;72797.53;5072635;28;20238;-75
2022/04/28 00:46:16;;;;;;;28.20;14.67;;;;;;;-145.69;100.00;72793.56;5072402;28;20234;-75
2022/04/28 00:51:29;;;;;;;30.47;15.47;;;;;;;-145.69;100.00;72773.66;5076328;28;20206;-75
2022/04/28 00:53:56;;;;;;;31.93;16.70;;;;;;;-145.69;100.00;72755.72;5076294;28;20199;-75
2022/04/28 00:56:23;;;;;;;32.03;15.30;;;;;;;-145.69;100.00;72799.53;5075909;28;20221;-75
2022/04/28 00:58:50;;;;;;;27.17;14.17;;;;;;;-145.69;100.00;72811.47;5075837;28;20202;-75
2022/04/28 01:01:17;;;;;;;28.47;14.73;;;;;;;-145.69;100.00;72829.38;5075669;28;20598;-74
2022/04/28 01:03:46;;;;;;;27.87;14.17;;;;;;;-145.69;100.00;72853.28;5075739;28;20233;-75
2022/04/28 01:06:13;;;;;;;31.00;15.13;;;;;;;-145.69;100.00;72837.34;5076063;28;20298;-75
2022/04/28 01:08:41;;;;;;;32.73;16.43;;;;;;;-145.69;100.00;72823.41;5075913;28;20194;-75
2022/04/28 01:11:08;;;;;;;32.50;15.80;;;;;;;-145.69;100.00;72853.28;5074323;28;20207;-75
2022/04/28 01:13:35;;;;;;;34.30;17.67;;;;;;;-145.69;100.00;72807.47;5075607;28;20795;-75
2022/04/28 01:16:02;;;;;;;37.10;18.37;;;;;;;-145.69;100.00;72773.66;5075611;28;20371;-75
2022/04/28 01:18:30;;;;;;;30.00;15.50;;;;;;;-145.69;100.00;72775.63;5075609;28;20241;-75
2022/04/28 01:21:02;;;;;;;28.87;15.30;;;;;;;-145.69;100.00;72795.53;5075864;28;20585;-74
2022/04/28 01:23:30;;;;;;;35.27;15.63;;;;;;;-145.69;100.00;72791.56;5075669;28;20621;-75
2022/04/28 01:25:57;;;;;;;30.10;15.77;;;;;;;-145.69;100.00;72789.56;5075237;28;20191;-75
2022/04/28 01:28:23;;;;;;;35.60;17.90;;;;;;;-145.69;100.00;72767.69;5075506;28;20649;-74
2022/04/28 01:30:50;;;;;;;30.53;15.77;;;;;;;-145.69;100.00;72767.69;5075920;28;20198;-74
2022/04/28 01:33:16;;;;;;;29.97;15.43;;;;;;;-145.69;100.00;72767.69;5075307;28;20194;-75
2022/04/28 01:35:43;;;;;;;31.77;15.80;;;;;;;-145.69;100.00;72763.69;5075624;28;20202;-75
2022/04/28 01:38:11;;;;;;;28.17;15.20;;;;;;;-145.69;100.00;72763.69;5075535;28;20207;-74
2022/04/28 01:40:37;;;;;;;29.47;14.87;;;;;;;-145.69;100.00;72795.53;5075402;28;20202;-75
2022/04/28 01:43:04;;;;;;;32.23;15.37;;;;;;;-145.69;100.00;72803.50;5074735;28;20222;-75
2022/04/28 01:45:31;;;;;;;28.97;15.30;;;;;;;-145.69;100.00;72799.53;5075444;28;20202;-75
2022/04/28 01:47:57;;;;;;;29.63;15.00;;;;;;;-145.69;100.00;72803.50;5075248;28;20206;-74
2022/04/28 01:50:23;;;;;;;29.87;15.37;;;;;;;-145.69;100.00;72809.47;5075123;28;20205;-75
2022/04/28 01:55:35;;;;;;;31.43;15.47;;;;;;;-145.69;100.00;72809.47;5071490;28;20197;-75
2022/04/28 01:58:02;;;;;;;28.47;15.27;;;;;;;-145.69;100.00;72809.47;5074604;28;20623;-75
2022/04/28 02:00:30;;;;;;;28.50;14.80;;;;;;;-145.69;100.00;72837.34;5074534;28;20344;-75
2022/04/28 02:02:56;;;;;;;28.13;14.47;;;;;;;-145.69;100.00;72813.47;5073946;28;20250;-75
2022/04/28 02:05:23;;;;;;;27.50;14.37;;;;;;;-145.69;100.00;72841.31;5074653;28;20199;-75
2022/04/28 02:07:49;;;;;;;27.07;14.23;;;;;;;-145.69;100.00;72837.34;5074642;28;20608;-75
2022/04/28 02:10:16;;;;;;;25.90;13.47;;;;;;;-145.69;100.00;72859.25;5074512;28;20195;-74
2022/04/28 02:12:44;;;;;;;31.30;14.30;;;;;;;-145.69;100.00;72839.34;5074520;28;20217;-75
2022/04/28 02:15:11;;;;;;;27.60;13.70;;;;;;;-145.69;100.00;72841.31;5074805;28;20225;-75
2022/04/28 02:17:39;;;;;;;25.97;12.87;;;;;;;-145.69;100.00;72873.19;5074015;28;20629;-75
2022/04/28 02:20:09;;;;;;;26.90;13.77;;;;;;;-145.69;100.00;72881.13;5074518;28;20207;-75
2022/04/28 02:22:36;;;;;;;28.00;14.13;;;;;;;-145.69;100.00;72893.09;5074308;28;20219;-75
2022/04/28 02:25:03;;;;;;;25.00;13.53;;;;;;;-145.69;100.00;72883.13;5074372;28;20661;-74
2022/04/28 02:27:29;;;;;;;29.13;15.30;;;;;;;-145.69;100.00;72863.22;5074138;28;20913;-75
2022/04/28 02:29:57;;;;;;;29.90;14.23;;;;;;;-145.69;100.00;72855.25;5074499;28;20771;-75
2022/04/28 02:32:24;;;;;;;30.03;13.83;;;;;;;-145.69;100.00;72863.22;5074113;28;20229;-75
2022/04/28 02:34:50;;;;;;;26.20;13.57;;;;;;;-145.69;100.00;72891.09;5074391;28;20210;-75
2022/04/28 02:37:17;;;;;;;31.67;13.53;;;;;;;-145.69;100.00;72851.28;5074001;28;20202;-75
2022/04/28 02:39:43;;;;;;;30.27;17.27;;;;;;;-145.69;100.00;72837.34;5073020;28;20437;-75
2022/04/28 02:42:10;;;;;;;25.37;14.40;;;;;;;-145.69;100.00;72845.31;5074399;28;20198;-75
2022/04/28 02:44:36;;;;;;;24.83;12.93;;;;;;;-145.69;100.00;72855.25;5056720;28;20231;-75
2022/04/28 02:47:04;;;;;;;26.83;13.37;;;;;;;-145.69;100.00;72845.31;5054107;28;20211;-75
2022/04/28 02:49:31;;;;;;;26.43;13.30;;;;;;;-145.69;100.00;72851.28;5053878;28;20674;-75
2022/04/28 02:51:57;;;;;;;30.37;14.17;;;;;;;-145.69;100.00;72819.44;5053808;28;20199;-75
2022/04/28 02:54:25;;;;;;;25.00;13.50;;;;;;;-145.69;100.00;72835.34;5054171;28;20229;-75
2022/04/28 02:56:53;;;;;;;27.57;13.70;;;;;;;-145.69;100.00;72837.34;5054054;28;20199;-75
2022/04/28 02:59:19;;;;;;;29.63;14.27;;;;;;;-145.69;100.00;72815.44;5054009;28;20195;-75
2022/04/28 03:01:46;;;;;;;30.37;14.40;;;;;;;-145.69;100.00;72781.59;5053765;28;20199;-75
2022/04/28 03:04:14;;;;;;;23.87;12.57;;;;;;;-145.69;100.00;72803.50;5073046;28;20229;-75
2022/04/28 03:12:08;;;;;;;26.53;14.47;;;;;;;-145.69;100.00;72801.50;5073034;28;20570;-75
2022/04/28 03:14:36;;;;;;;25.53;12.93;;;;;;;-145.69;100.00;72815.44;5073450;28;20199;-74
2022/04/28 03:17:03;;;;;;;25.90;12.80;;;;;;;-145.69;100.00;72827.38;5073266;28;20252;-75
2022/04/28 03:19:31;;;;;;;28.13;13.67;;;;;;;-145.69;100.00;72825.41;5073240;28;20237;-75
2022/04/28 03:21:58;;;;;;;26.57;13.43;;;;;;;-145.69;100.00;72819.44;5073450;28;20203;-75
2022/04/28 03:24:24;;;;;;;30.57;13.83;;;;;;;-145.69;100.00;72827.38;5073066;28;20229;-75
2022/04/28 03:26:50;;;;;;;29.67;13.20;;;;;;;-145.69;100.00;72829.38;5073294;28;20205;-75
2022/04/28 03:29:17;;;;;;;24.73;13.10;;;;;;;-145.69;100.00;72817.44;5073083;28;20256;-75
2022/04/28 03:31:44;;;;;;;26.17;13.63;;;;;;;-145.69;100.00;72827.38;5073148;28;20684;-75
2022/04/28 03:34:10;;;;;;;29.83;14.23;;;;;;;-145.69;100.00;72839.34;5073403;28;20198;-75
2022/04/28 03:36:53;;;;;;;31.93;14.47;;;;;;;-145.69;100.00;72835.34;5073058;28;20653;-75
2022/04/28 03:39:20;;;;;;;27.67;12.90;;;;;;;-145.69;100.00;72825.41;5073177;28;20293;-75
2022/04/28 03:41:46;;;;;;;28.83;14.00;;;;;;;-145.69;100.00;72823.41;5073068;28;20237;-75
2022/04/28 03:44:13;;;;;;;25.23;13.20;;;;;;;-145.69;100.00;72835.34;5073049;28;20222;-75
2022/04/28 03:46:40;;;;;;;27.93;13.70;;;;;;;-145.69;100.00;72825.41;5072044;28;20214;-75
2022/04/28 03:49:06;;;;;;;28.43;13.90;;;;;;;-145.69;100.00;72823.41;5073010;28;20203;-75
2022/04/28 03:51:33;;;;;;;25.30;12.93;;;;;;;-145.69;100.00;72839.34;5073055;28;20203;-75
2022/04/28 03:54:01;;;;;;;25.53;12.50;;;;;;;-145.69;100.00;72849.28;5072779;28;20244;-75
2022/04/28 03:56:31;;;;;;;28.57;13.43;;;;;;;-145.69;100.00;72871.19;5072834;28;20198;-75
2022/04/28 03:58:58;;;;;;;26.80;12.70;;;;;;;-145.69;100.00;72883.13;5072963;28;20223;-75
2022/04/28 04:01:24;;;;;;;23.83;11.67;;;;;;;-145.69;100.00;72899.06;5072947;28;20285;-75
2022/04/28 04:03:51;;;;;;;26.93;12.57;;;;;;;-145.69;100.00;72885.13;5072625;28;20321;-75
2022/04/28 04:06:18;;;;;;;25.33;12.33;;;;;;;-145.69;100.00;72899.06;5072932;28;20199;-75
2022/04/28 04:08:45;;;;;;;24.67;12.33;;;;;;;-145.69;100.00;72907.00;5072677;28;20198;-75
2022/04/28 04:11:14;;;;;;;26.17;13.13;;;;;;;-145.69;100.00;72903.03;5072477;28;20567;-75
2022/04/28 04:13:40;;;;;;;24.97;12.63;;;;;;;-145.69;100.00;72913.00;5072632;28;20198;-75
2022/04/28 04:16:07;;;;;;;26.80;12.03;;;;;;;-145.69;100.00;72914.97;5072797;28;20206;-75
2022/04/28 04:18:33;;;;;;;29.37;13.23;;;;;;;-145.69;100.00;72883.13;5072519;28;20231;-74
2022/04/28 04:21:00;;;;;;;26.17;12.97;;;;;;;-145.69;100.00;72887.09;5072697;28;20206;-75
2022/04/28 04:23:26;;;;;;;24.97;13.13;;;;;;;-145.69;100.00;72879.16;5072545;28;20689;-75
2022/04/28 04:25:53;;;;;;;24.47;12.70;;;;;;;-145.69;100.00;72863.22;5076108;28;20259;-75
2022/04/28 04:28:21;;;;;;;26.00;12.50;;;;;;;-145.69;100.00;72869.19;5076835;28;20206;-75
2022/04/28 04:33:32;;;;;;;23.97;11.93;;;;;;;-145.69;100.00;72907.00;5076659;28;20201;-75
2022/04/28 04:35:58;;;;;;;26.57;13.37;;;;;;;-145.69;100.00;72883.13;5076481;28;20255;-75
2022/04/28 04:38:24;;;;;;;25.37;13.37;;;;;;;-145.69;100.00;72855.25;5076624;28;20323;-75
2022/04/28 04:40:51;;;;;;;27.73;12.87;;;;;;;-145.69;100.00;72853.28;5076599;28;20207;-75
2022/04/28 04:43:17;;;;;;;30.07;14.67;;;;;;;-145.69;100.00;72847.28;5076138;28;20226;-75
2022/04/28 04:45:45;;;;;;;27.63;13.83;;;;;;;-145.69;100.00;72839.34;5076404;28;20202;-75
2022/04/28 04:48:13;;;;;;;35.20;16.10;;;;;;;-145.69;100.00;72841.31;5075818;28;20653;-75
2022/04/28 04:50:40;;;;;;;33.10;14.80;;;;;;;-145.69;100.00;72843.31;5076030;28;20194;-75
2022/04/28 04:53:07;;;;;;;32.50;14.77;;;;;;;-145.69;100.00;72837.34;5062455;28;20617;-75
2022/04/28 04:55:36;;;;;;;33.27;14.97;;;;;;;-145.69;100.00;72831.38;5056033;28;20207;-75
2022/04/28 04:58:03;;;;;;;30.97;14.03;;;;;;;-145.69;100.00;72849.28;5055963;28;20257;-75
2022/04/28 05:00:30;;;;;;;30.57;15.20;;;;;;;-145.69;100.00;72831.38;5054735;28;20699;-75
2022/04/28 05:02:57;;;;;;;30.93;15.33;;;;;;;-145.69;100.00;72829.38;5055710;28;20203;-75
2022/04/28 05:05:24;;;;;;;28.47;14.57;;;;;;;-145.69;100.00;72831.38;5055888;28;20227;-75
2022/04/28 05:07:50;;;;;;;30.23;14.07;;;;;;;-145.69;100.00;72831.38;5056024;28;20257;-75
2022/04/28 05:10:17;;;;;;;30.50;15.47;;;;;;;-145.69;100.00;72819.44;5056144;28;20602;-75
2022/04/28 05:12:43;;;;;;;31.77;15.93;;;;;;;-145.69;100.00;72815.44;5071842;28;20554;-75
2022/04/28 05:15:10;;;;;;;35.23;16.03;;;;;;;-145.69;100.00;72799.53;5075826;28;20203;-75
2022/04/28 05:17:37;;;;;;;35.10;16.60;;;;;;;-145.69;100.00;72795.53;5075476;28;20292;-75
2022/04/28 05:20:06;;;;;;;32.83;16.00;;;;;;;-145.69;100.00;72787.56;5075924;28;20523;-75
2022/04/28 05:22:33;;;;;;;33.37;15.60;;;;;;;-145.69;100.00;72779.63;5075581;28;20688;-75
2022/04/28 05:25:00;;;;;;;32.17;15.13;;;;;;;-145.69;100.00;72783.59;5075709;28;20263;-75
2022/04/28 05:27:26;;;;;;;33.67;16.10;;;;;;;-145.69;100.00;72759.72;5075626;28;20218;-74
2022/04/28 05:29:53;;;;;;;29.27;15.17;;;;;;;-145.69;100.00;72765.69;5075770;28;20237;-75
2022/04/28 05:32:19;;;;;;;36.17;15.17;;;;;;;-145.69;100.00;72757.72;5075457;28;20203;-75
2022/04/28 05:34:46;;;;;;;30.53;15.17;;;;;;;-145.69;100.00;72743.78;5075298;28;20260;-75
2022/04/28 05:37:14;;;;;;;29.47;14.97;;;;;;;-145.69;100.00;72731.84;5075517;28;20203;-75
2022/04/28 05:39:42;;;;;;;28.07;13.83;;;;;;;-145.69;100.00;72719.91;5075431;28;20198;-75
2022/04/28 05:42:09;;;;;;;28.70;15.17;;;;;;;-145.69;100.00;72709.94;5075298;28;20202;-75
2022/04/28 05:47:20;;;;;;;24.97;12.77;;;;;;;-145.69;100.00;72692.03;5075258;28;20225;-75
2022/04/28 05:49:46;;;;;;;26.07;12.77;;;;;;;-145.69;100.00;72664.16;5075160;28;20202;-74
2022/04/28 05:52:14;;;;;;;25.10;12.73;;;;;;;-145.69;100.00;72664.16;5075478;28;20264;-75
2022/04/28 05:54:41;;;;;;;28.27;14.13;;;;;;;-145.69;100.00;72656.22;5075143;28;20195;-75
2022/04/28 05:57:07;;;;;;;25.80;12.63;;;;;;;-145.69;100.00;72648.25;5074995;28;20199;-75
2022/04/28 05:59:34;;;;;;;21.60;12.10;;;;;;;-145.69;100.00;72640.28;5074923;28;20210;-75
2022/04/28 06:02:02;;;;;;;24.07;12.33;;;;;;;-145.69;100.00;72632.31;5075041;28;20199;-75
2022/04/28 06:04:28;;;;;;;23.00;11.67;;;;;;;-145.69;100.00;72624.34;5073552;28;20262;-75
2022/04/28 06:06:55;;;;;;;20.70;11.17;;;;;;;-145.69;100.00;72616.41;5074895;28;20260;-75
2022/04/28 06:09:23;;;;;;;18.10;10.03;;;;;;;-145.69;100.00;72596.50;5075035;28;20199;-75
2022/04/28 06:11:50;;;;;;;18.33;10.17;;;;;;;-145.69;100.00;72590.53;5074336;28;20195;-75
2022/04/28 06:14:16;;;;;;;17.53;9.73;;;;;;;-145.69;100.00;72574.59;5074952;28;20206;-75
2022/04/28 06:16:42;;;;;;;17.30;9.57;;;;;;;-145.69;100.00;72568.63;5074665;28;20654;-75
2022/04/28 06:19:09;;;;;;;15.77;9.27;;;;;;;-145.69;99.36;72548.72;5074705;28;20252;-75
2022/04/28 06:21:36;;;;;;;15.63;8.80;;;;;;;-145.69;97.02;72546.72;5074494;28;20207;-75
2022/04/28 06:24:03;;;;;;;15.77;8.03;;;;;;;-145.69;94.54;72520.84;5074459;28;20654;-75
2022/04/28 06:26:31;;;;;;;12.20;7.60;;;;;;;-145.69;94.47;72494.97;5074316;28;20209;-75
2022/04/28 06:28:57;;;;;;;14.00;7.60;;;;;;;-145.69;93.36;72496.97;5074376;28;20673;-75
2022/04/28 06:31:24;;;;;;;11.80;7.50;;;;;;;-145.69;91.65;72489.00;5074529;28;20222;-75
2022/04/28 06:33:50;;;;;;;13.23;7.20;;;;;;;-145.69;90.28;72475.06;5074273;28;20289;-75
2022/04/28 06:36:17;;;;;;;12.13;7.17;;;;;;;-145.69;88.63;72471.09;5074314;28;20198;-75
2022/04/28 06:38:43;;;;;;;10.87;7.00;;;;;;;-145.69;88.19;72459.16;5074296;28;20199;-75
2022/04/28 06:41:10;;;;;;;11.17;6.57;;;;;;;-145.69;87.36;72465.13;5073880;28;20217;-75
2022/04/28 06:43:38;;;;;;;10.90;6.87;;;;;;;-145.69;87.19;72459.16;5074048;28;20600;-74
2022/04/28 06:46:13;;;;;;;11.10;6.13;;;;;;;-145.69;85.41;72451.19;5074186;28;20202;-75
2022/04/28 06:48:40;;;;;;;10.00;5.87;;;;;;;-145.69;86.43;72441.25;5073517;28;20210;-75
2022/04/28 06:51:06;;;;;;;10.97;6.20;;;;;;;-145.69;85.90;72437.25;5073947;28;20199;-75
2022/04/28 06:53:33;;;;;;;11.20;5.97;;;;;;;-145.69;83.36;72427.31;5073787;28;20252;-75
2022/04/28 06:56:00;;;;;;;11.53;6.00;;;;;;;-145.69;84.53;72421.34;5074040;28;20215;-74
2022/04/28 06:58:26;;;;;;;10.83;6.37;;;;;;;-145.69;87.16;72397.44;5066842;28;20204;-75
2022/04/28 07:00:54;;;;;;;11.23;5.90;;;;;;;-145.69;81.47;72397.44;5058991;28;20187;-74
2022/04/28 07:03:20;;;;;;;10.47;6.17;;;;;;;-145.69;83.01;72407.41;5073788;28;20199;-75
2022/04/28 07:05:48;;;;;;;11.57;6.47;;;;;;;-145.69;84.49;72389.50;5073088;28;20461;-75
2022/04/28 07:08:14;;;;;;;11.27;5.43;;;;;;;-145.69;82.59;72383.53;5073555;28;20206;-74
2022/04/28 07:10:41;;;;;;;10.17;5.63;;;;;;;-145.69;82.84;72369.59;5073512;28;20229;-74
2022/04/28 07:13:08;;;;;;;15.10;6.37;;;;;;;-145.69;81.29;72347.69;5073217;28;20206;-74
2022/04/28 07:15:35;;;;;;;9.40;5.50;;;;;;;-145.69;81.71;72343.72;5073596;28;20203;-75
2022/04/28 07:18:03;;;;;;;12.17;6.57;;;;;;;-145.69;83.24;72349.69;5073432;28;20265;-75
2022/04/28 07:20:31;;;;;;;8.20;5.47;;;;;;;-145.69;83.03;72337.75;5073332;28;20206;-75
2022/04/28 07:22:59;;;;;;;12.27;6.23;;;;;;;-145.69;80.35;72337.75;5073466;28;20248;-75
2022/04/28 07:25:26;;;;;;;12.30;5.53;;;;;;;-145.69;79.63;72329.78;5073250;28;20755;-74
2022/04/28 07:27:52;;;;;;;8.63;5.63;;;;;;;-145.69;78.91;72339.72;5073371;28;20256;-75
2022/04/28 07:30:20;;;;;;;8.93;5.37;;;;;;;-145.69;80.13;72325.81;5073510;28;20229;-74
2022/04/28 07:32:47;;;;;;;10.33;6.43;;;;;;;-145.69;79.70;72333.75;5073344;28;20206;-74
2022/04/28 07:35:14;;;;;;;8.70;5.07;;;;;;;-145.69;77.84;72325.81;5073147;28;20206;-74
2022/04/28 07:37:41;;;;;;;7.83;5.27;;;;;;;-145.69;74.36;72301.91;5072980;28;20199;-74
2022/04/28 07:40:09;;;;;;;8.50;5.60;;;;;;;-145.69;74.20;72301.91;5072363;28;20442;-74
2022/04/28 07:42:35;;;;;;;7.77;4.63;;;;;;;-145.69;78.71;72278.03;5072988;28;20195;-74
2022/04/28 07:45:02;;;;;;;6.93;4.57;;;;;;;-145.69;73.94;72286.00;5067076;28;20241;-74
2022/04/28 07:47:29;;;;;;;8.83;4.70;;;;;;;-145.69;72.90;72272.06;5071642;28;20203;-74
2022/04/28 07:49:56;;;;;;;8.13;4.17;;;;;;;-145.69;71.04;72254.16;5072409;28;20293;-74
2022/04/28 07:52:24;;;;;;;7.60;4.57;;;;;;;-145.69;70.25;72266.09;5073227;28;20202;-75
2022/04/28 07:54:51;;;;;;;7.03;4.00;;;;;;;-145.69;73.23;72248.19;5072447;28;20249;-74
2022/04/28 07:57:18;;;;;;;7.07;4.40;;;;;;;-145.69;70.12;72260.13;5072689;28;20199;-74
2022/04/28 07:59:44;;;;;;;11.00;4.40;;;;;;;-145.69;69.82;72250.16;5072590;28;20203;-74
2022/04/28 08:02:11;;;;;;;7.63;4.60;;;;;;;-145.69;77.91;72222.31;5072325;28;20191;-74
2022/04/28 08:04:38;;;;;;;8.43;4.30;;;;;;;-145.69;69.34;72232.25;5072534;28;20241;-74
2022/04/28 08:07:04;;;;;;;6.40;3.73;;;;;;;-145.69;67.78;72222.31;5072895;28;20198;-74
2022/04/28 08:09:32;;;;;;;7.13;4.20;;;;;;;-145.69;65.78;72222.31;5072376;28;20677;-74
2022/04/28 08:11:59;;;;;;;6.37;4.10;;;;;;;-145.69;66.63;72202.41;5072475;28;20198;-75
2022/04/28 08:14:26;;;;;;;6.67;4.20;;;;;;;-145.69;67.02;72190.47;5072444;28;20214;-74
2022/04/28 08:16:52;;;;;;;5.30;3.47;;;;;;;-145.69;63.55;72172.53;5072108;28;20206;-74
2022/04/28 08:19:19;;;;;;;7.17;3.77;;;;;;;-145.69;64.14;72172.53;5072640;28;20226;-73
2022/04/28 08:21:46;;;;;;;5.83;3.63;;;;;;;-145.69;66.58;72154.63;5072696;28;20238;-74
2022/04/28 08:24:13;;;;;;;6.63;3.20;;;;;;;-145.69;61.92;72156.63;5072719;28;20253;-75
2022/04/28 08:26:41;;;;;;;7.43;3.87;;;;;;;-145.69;62.49;72138.72;5072657;28;20276;-75
2022/04/28 08:29:07;;;;;;;6.38;4.00;;;;;;;-145.69;65.43;72142.69;5071265;28;20464;-74
2022/04/28 08:31:38;;;;;;;6.65;3.92;;;;;;;-145.69;63.24;72128.75;5072555;28;20205;-74
2022/04/28 08:34:04;;;;;;;5.50;3.50;;;;;;;-145.69;58.94;72130.75;5072545;28;20203;-74
2022/04/28 08:36:30;;;;;;;6.70;3.27;;;;;;;-145.69;57.01;72122.78;5072647;28;20226;-75
2022/04/28 08:38:57;;;;;;;6.03;3.63;;;;;;;-145.69;57.89;72120.81;5072404;28;20203;-75
2022/04/28 08:41:30;;;;;;;10.37;3.40;;;;;;;-145.69;56.62;72110.84;5072414;28;20256;-75
2022/04/28 08:44:00;;;;;;;8.30;3.37;;;;;;;-145.69;54.02;72118.81;5072463;28;20209;-75
2022/04/28 08:49:13;;;;;;;4.43;3.10;;;;;;;-145.69;56.52;72146.69;5072415;28;20284;-75
2022/04/28 08:51:40;;;;;;;4.47;2.80;;;;;;;-145.69;59.79;72128.75;5072438;28;20199;-74
2022/04/28 08:54:10;;;;;;;5.60;3.20;;;;;;;-145.69;52.14;72110.84;5072161;28;20681;-74
2022/04/28 08:56:36;;;;;;;6.23;3.00;;;;;;;-145.69;54.16;72104.88;5057018;28;20272;-75
2022/04/28 08:59:04;;;;;;;5.27;3.20;;;;;;;-145.69;52.56;72118.81;5052498;28;20215;-75
2022/04/28 09:01:31;;;;;;;4.07;2.63;;;;;;;-145.69;53.55;72138.72;5068628;28;20194;-75
2022/04/28 09:03:59;;;;;;;5.07;3.20;;;;;;;-145.69;55.42;72128.75;5072223;28;20427;-75
2022/04/28 09:06:28;;;;;;;3.83;2.60;;;;;;;-145.69;49.41;72128.75;5072279;28;20230;-75
2022/04/28 09:08:55;;;;;;;6.67;2.97;;;;;;;-145.69;50.08;72126.78;5067606;28;20535;-75
2022/04/28 09:11:24;;;;;;;5.60;3.00;;;;;;;-145.69;49.30;72128.75;5074383;28;20272;-75
2022/04/28 09:14:12;;;;;;;5.60;3.37;;;;;;;-145.69;50.43;72118.81;5073793;28;20705;-79
2022/04/28 09:16:45;;;;;;;4.50;3.07;;;;;;;-145.69;53.60;72108.84;5075934;28;20199;-76
2022/04/28 09:19:13;;;;;;;5.50;3.10;;;;;;;-145.69;53.48;72090.94;5075689;28;20284;-75
2022/04/28 09:21:40;;;;;;;5.65;2.80;;;;;;;-145.69;57.25;72075.03;5075659;28;20210;-75
2022/04/28 09:24:09;;;;;;;6.80;2.87;;;;;;;-145.69;52.35;72059.09;5075811;28;20195;-75
2022/04/28 09:26:38;;;;;;;4.25;2.60;;;;;;;-145.69;51.02;72063.09;5074966;28;20234;-75
2022/04/28 09:29:06;;;;;;;4.20;2.80;;;;;;;-145.69;51.50;72047.16;5073557;28;20206;-75
2022/04/28 09:31:35;;;;;;;4.03;2.40;;;;;;;-145.69;50.64;72045.16;5073483;28;20206;-76
2022/04/28 09:34:10;;;;;;;5.05;2.90;;;;;;;-145.69;46.36;72047.16;5073350;28;20203;-75
2022/04/28 09:36:41;;;;;;;4.32;2.22;;;;;;;-145.69;45.90;72059.09;5073537;28;20213;-75
2022/04/28 09:39:09;;;;;;;3.15;2.35;;;;;;;-145.69;47.91;72061.09;5073974;28;20591;-77
2022/04/28 09:44:23;;;;;;;5.63;3.50;;;;;;;-145.69;50.88;72069.06;5074075;28;20429;-75
2022/04/28 09:46:51;;;;;;;6.23;3.20;;;;;;;-145.69;49.33;72067.06;5075066;28;20716;-75
2022/04/28 09:49:23;;;;;;;8.00;2.90;;;;;;;-145.69;49.08;72053.13;5075069;28;20293;-75
2022/04/28 09:51:59;;;;;;;10.05;2.70;;;;;;;-145.69;48.54;72035.22;5075009;28;20649;-75
2022/04/28 09:54:29;;;;;;;5.13;2.57;;;;;;;-145.69;45.83;72025.28;5075194;28;20209;-75
2022/04/28 09:56:59;;;;;;;3.53;2.60;;;;;;;-145.69;45.38;72031.25;5075506;28;20204;-76
2022/04/28 09:59:27;;;;;;;5.35;2.70;;;;;;;-145.69;50.42;72009.34;5075374;28;20289;-76
2022/04/28 10:01:57;;;;;;;3.33;2.65;;;;;;;-145.69;49.10;71999.41;5074789;28;20306;-75
2022/04/28 10:04:26;;;;;;;3.28;2.42;;;;;;;-145.69;49.72;71999.41;5074979;28;20218;-76
2022/04/28 10:06:55;;;;;;;5.27;3.20;;;;;;;-145.69;51.61;71975.50;5074681;28;20230;-75
2022/04/28 10:09:21;;;;;;;3.75;2.65;;;;;;;-145.69;48.53;71979.50;5074745;28;20203;-77
2022/04/28 10:11:50;;;;;;;5.22;2.50;;;;;;;-145.69;51.02;71951.63;5074954;28;20202;-76
2022/04/28 10:14:22;;;;;;;6.45;3.40;;;;;;;-145.69;51.13;71977.50;5074840;28;20202;-75
2022/04/28 10:16:50;;;;;;;6.63;3.42;;;;;;;-145.69;49.84;71957.59;5073643;28;20437;-76
2022/04/28 10:19:22;;;;;;;6.97;3.40;;;;;;;-145.69;48.34;71971.53;5074589;28;20231;-77
2022/04/28 10:21:53;;;;;;;5.00;3.38;;;;;;;-145.69;52.87;71947.66;5073412;28;20206;-75
2022/04/28 10:33:14;;;;;;;4.90;3.15;;;;;;;-145.69;46.97;71959.59;5074599;28;20202;-76
2022/04/28 10:35:43;;;;;;;5.50;2.78;;;;;;;-145.69;47.77;71959.59;5073300;28;20202;-76
2022/04/28 10:38:17;;;;;;;4.50;3.13;;;;;;;-145.69;50.83;71923.78;5074270;28;20203;-75
2022/04/28 10:40:56;;;;;;;3.63;2.67;;;;;;;-145.69;51.88;71881.97;5074154;28;20202;-76
2022/04/28 10:43:25;;;;;;;4.68;2.78;;;;;;;-145.69;45.80;71911.84;5074464;28;20198;-75
2022/04/28 10:45:54;;;;;;;5.03;2.85;;;;;;;-145.69;49.89;71927.75;5074105;28;20222;-76
2022/04/28 10:48:26;;;;;;;4.07;2.85;;;;;;;-145.69;47.80;71893.91;5074122;28;20198;-75
2022/04/28 10:51:01;;;;;;;5.55;2.75;;;;;;;-145.69;47.55;71874.03;5072422;28;20199;-76
2022/04/28 10:53:29;;;;;;;4.47;2.60;;;;;;;-145.69;46.46;71899.88;5072894;28;20199;-76
2022/04/28 10:56:06;;;;;;;4.85;2.92;;;;;;;-145.69;46.01;71889.94;5072787;28;20999;-76
2022/04/28 10:58:32;;;;;;;4.03;2.67;;;;;;;-145.69;48.44;71880.00;5074117;28;20205;-76
2022/04/28 11:01:01;;;;;;;4.10;2.40;;;;;;;-145.69;46.41;71899.88;5073467;28;20206;-76
2022/04/28 11:03:47;;;;;;;4.85;2.58;;;;;;;-145.69;48.78;71872.03;5073675;28;20205;-76
2022/04/28 11:06:15;;;;;;;5.13;2.85;;;;;;;-145.69;45.39;71860.09;5073778;28;20226;-76
2022/04/28 11:08:48;;;;;;;5.10;2.92;;;;;;;-145.69;47.40;71844.16;5073499;28;20588;-75
2022/04/28 11:11:15;;;;;;;4.00;2.80;;;;;;;-145.69;46.43;71828.25;5073760;28;20218;-76
2022/04/28 11:13:45;;;;;;;4.43;3.00;;;;;;;-145.69;41.67;71870.03;5073694;28;20202;-75
2022/04/28 11:16:12;;;;;;;5.28;3.00;;;;;;;-145.69;48.69;71895.91;5073854;28;20226;-76
2022/04/28 11:18:39;;;;;;;4.13;2.85;;;;;;;-145.69;45.32;71889.94;5073529;28;20230;-76
2022/04/28 11:21:08;;;;;;;5.57;3.10;;;;;;;-145.69;45.19;71844.16;5073531;28;20202;-76
2022/04/28 11:23:41;;;;;;;4.63;3.03;;;;;;;-145.69;42.05;71858.09;5073517;28;20248;-75
2022/04/28 11:26:09;;;;;;;7.18;2.60;;;;;;;-145.69;44.56;71836.22;5073544;28;20261;-76
2022/04/28 11:28:37;;;;;;;10.48;2.78;;;;;;;-145.69;43.79;71820.28;5073049;28;20218;-76
2022/04/28 11:31:08;;;;;;;6.13;3.03;;;;;;;-145.69;44.17;71814.31;5073245;28;20198;-76
2022/04/28 11:33:35;;;;;;;5.90;2.80;;;;;;;-145.69;46.39;71804.38;5072996;28;20205;-77
2022/04/28 11:36:02;;;;;;;6.75;3.50;;;;;;;-145.69;42.69;71788.44;5072508;28;20441;-75
2022/04/28 11:38:31;;;;;;;4.25;2.63;;;;;;;-145.69;46.62;71796.41;5072855;28;20201;-76